This is the latest recevied weather packets stored in our database for station/object N7UV-WX. If no packets are shown the sender has not sent any weather packets the latest 10 day(s).
| Time | Temp. | Humidity | Pressure | Rain* | Wind** | Luminosity | Snow |
|---|---|---|---|---|---|---|---|
| 1777392335 | 20° C | 26% | 1015.3 hPa | 0 mm | - | 670 W/m² | - |
| 1777386320 | 16.67° C | 30% | 1014.5 hPa | 0 mm | - | 35 W/m² | - |
| 1777383319 | 16.67° C | 31% | 1014 hPa | 0 mm | - | 23 W/m² | - |
| 1777379719 | 17.22° C | 30% | 1013.3 hPa | 0 mm | - | 0 W/m² | - |
| 1777378519 | 16.67° C | 30% | 1012.9 hPa | 0 mm | - | 0 W/m² | - |
| 1777376719 | 17.22° C | 29% | 1012.7 hPa | 0 mm | - | 0 W/m² | - |
| 1777374919 | 17.22° C | 28% | 1012.6 hPa | 0 mm | - | 0 W/m² | - |
| 1777371354 | 17.78° C | 28% | 1012.7 hPa | 0 mm | - | 0 W/m² | - |
| 1777370119 | 17.78° C | 28% | 1012.5 hPa | 0 mm | - | 0 W/m² | - |
| 1777367119 | 18.33° C | 27% | 1012.7 hPa | 0 mm | - | 0 W/m² | - |
| 1777364719 | 18.33° C | 26% | 1012.7 hPa | 0 mm | - | 0 W/m² | - |
| 1777359335 | 20° C | 23% | 1012.5 hPa | 0 mm | - | 0 W/m² | - |
| 1777356320 | 20° C | 23% | 1012.2 hPa | 0 mm | - | 0 W/m² | - |
| 1777355720 | 20.56° C | 22% | 1012.1 hPa | 0 mm | - | 0 W/m² | - |
| 1777353955 | 21.11° C | 21% | 1012 hPa | 0 mm | - | 0 W/m² | - |
| 1777350320 | 21.67° C | 19% | 1011.5 hPa | 0 mm | - | 0 W/m² | - |
| 1777349734 | 21.67° C | 20% | 1011.3 hPa | 0 mm | - | 0 W/m² | - |
| 1777341920 | 23.33° C | 19% | 1009.2 hPa | 0 mm | - | 9 W/m² | - |
| 1777341319 | 23.89° C | 19% | 1009.2 hPa | 0 mm | - | 19 W/m² | - |
| 1777339519 | 25° C | 18% | 1009.1 hPa | 0 mm | - | 95 W/m² | - |
| 1777336519 | 25° C | 16% | 1009.1 hPa | 0 mm | - | 302 W/m² | - |
| 1777335319 | 25° C | 16% | 1009.2 hPa | 0 mm | - | 385 W/m² | - |
| 1777334719 | 25° C | 16% | 1009.3 hPa | 0 mm | - | 420 W/m² | - |
| 1777331119 | 25° C | 16% | 1009.4 hPa | 0 mm | - | 650 W/m² | - |
| 1777330519 | 25° C | 16% | 1009.5 hPa | 0 mm | - | 681 W/m² | - |
* Rain latest hour (hover to see other rain measurements)
** Current wind speed in m/s (hover to see current wind gust speed)